createdAt,value
2022-11-07T00:01:41.280Z,32.55
2022-11-07T00:04:08.072Z,31.45
2022-11-07T00:06:37.435Z,33.20
2022-11-07T00:09:04.184Z,31.23
2022-11-07T00:11:31.415Z,31.25
2022-11-07T00:13:58.117Z,31.50
2022-11-07T00:16:26.711Z,33.03
2022-11-07T00:18:53.533Z,32.75
2022-11-07T00:21:20.569Z,30.83
2022-11-07T00:23:47.417Z,31.50
2022-11-07T00:26:14.815Z,30.05
2022-11-07T00:28:42.479Z,30.10
2022-11-07T00:31:10.297Z,30.52
2022-11-07T00:33:37.014Z,31.20
2022-11-07T00:36:04.370Z,28.45
2022-11-07T00:38:31.046Z,29.10
2022-11-07T00:40:59.201Z,29.15
2022-11-07T00:43:26.069Z,28.85
2022-11-07T00:45:53.182Z,29.95
2022-11-07T00:48:20.002Z,29.75
2022-11-07T00:50:47.057Z,28.60
2022-11-07T00:53:14.115Z,29.25
2022-11-07T00:55:41.458Z,27.42
2022-11-07T00:58:12.692Z,27.23
2022-11-07T01:00:41.114Z,26.40
2022-11-07T01:03:26.322Z,28.17
2022-11-07T01:05:57.873Z,27.55
2022-11-07T01:08:24.974Z,24.70
2022-11-07T01:10:51.950Z,26.35
2022-11-07T01:13:18.722Z,27.67
2022-11-07T01:15:45.793Z,27.35
2022-11-07T01:18:12.576Z,27.05
2022-11-07T01:20:40.958Z,26.25
2022-11-07T01:23:07.980Z,26.58
2022-11-07T01:25:38.727Z,25.58
2022-11-07T01:28:06.408Z,26.25
2022-11-07T01:30:33.691Z,24.85
2022-11-07T01:33:00.394Z,25.40
2022-11-07T01:35:27.409Z,25.33
2022-11-07T01:37:54.136Z,25.17
2022-11-07T01:40:21.239Z,24.58
2022-11-07T01:42:47.995Z,25.83
2022-11-07T01:45:26.289Z,26.10
2022-11-07T01:47:53.066Z,25.33
2022-11-07T01:50:21.376Z,24.40
2022-11-07T01:52:49.659Z,23.02
2022-11-07T01:55:20.309Z,24.65
2022-11-07T01:57:55.733Z,24.30
2022-11-07T02:00:23.341Z,23.55
2022-11-07T02:02:56.265Z,24.05
2022-11-07T02:05:49.825Z,24.55
2022-11-07T02:08:16.585Z,24.17
2022-11-07T02:10:43.597Z,24.13
2022-11-07T02:13:10.349Z,24.67
2022-11-07T02:15:37.373Z,24.08
2022-11-07T02:18:04.377Z,23.88
2022-11-07T02:20:31.382Z,25.98
2022-11-07T02:23:06.506Z,25.42
2022-11-07T02:28:01.212Z,25.52
2022-11-07T02:30:29.679Z,23.65
2022-11-07T02:32:56.446Z,25.20
2022-11-07T02:35:35.055Z,25.17
2022-11-07T02:38:26.206Z,23.25
2022-11-07T02:41:12.273Z,24.70
2022-11-07T02:46:08.347Z,23.98
2022-11-07T02:48:49.413Z,25.58
2022-11-07T02:51:16.942Z,25.65
2022-11-07T02:53:43.705Z,26.50
2022-11-07T02:56:10.766Z,25.33
2022-11-07T02:58:37.610Z,25.20
2022-11-07T03:01:08.499Z,27.60
2022-11-07T03:03:45.305Z,26.52
2022-11-07T03:06:14.296Z,25.90
2022-11-07T03:08:41.120Z,26.95
2022-11-07T03:11:08.198Z,25.13
2022-11-07T03:13:34.993Z,24.98
2022-11-07T03:16:09.001Z,25.35
2022-11-07T03:18:36.061Z,23.67
2022-11-07T03:21:03.885Z,23.98
2022-11-07T03:23:30.757Z,24.73
2022-11-07T03:25:57.748Z,24.88
2022-11-07T03:28:24.858Z,23.75
2022-11-07T03:30:52.123Z,25.02
2022-11-07T03:33:18.900Z,23.65
2022-11-07T03:35:45.980Z,24.45
2022-11-07T03:38:12.726Z,24.40
2022-11-07T03:40:39.801Z,27.83
2022-11-07T03:43:06.535Z,27.75
2022-11-07T03:45:33.520Z,27.85
2022-11-07T03:48:00.225Z,25.63
2022-11-07T03:50:27.289Z,25.17
2022-11-07T03:52:54.117Z,25.02
2022-11-07T03:55:21.164Z,26.25
2022-11-07T03:57:47.901Z,24.23
2022-11-07T04:00:15.424Z,25.42
2022-11-07T04:02:42.785Z,25.25
2022-11-07T04:05:10.007Z,24.77
2022-11-07T04:07:36.700Z,26.02
2022-11-07T04:10:04.039Z,24.27
2022-11-07T04:12:57.088Z,24.73
2022-11-07T04:15:42.527Z,23.75
2022-11-07T04:18:09.240Z,24.27
2022-11-07T04:20:36.278Z,25.13
2022-11-07T04:23:03.001Z,23.63
2022-11-07T04:25:48.704Z,23.10
2022-11-07T04:28:17.823Z,24.17
2022-11-07T04:30:44.967Z,23.95
2022-11-07T04:33:11.801Z,23.38
2022-11-07T04:35:39.024Z,24.80
2022-11-07T04:38:05.776Z,24.70
2022-11-07T04:40:32.770Z,24.13
2022-11-07T04:42:59.509Z,23.55
2022-11-07T04:45:26.579Z,25.48
2022-11-07T04:47:53.474Z,24.63
2022-11-07T04:50:21.048Z,24.65
2022-11-07T04:52:47.902Z,24.20
2022-11-07T04:55:25.494Z,24.83
2022-11-07T04:57:52.358Z,23.83
2022-11-07T05:00:19.828Z,24.80
2022-11-07T05:02:46.838Z,24.45
2022-11-07T05:05:13.931Z,22.48
2022-11-07T05:07:40.774Z,21.80
2022-11-07T05:10:12.263Z,21.80
2022-11-07T05:12:39.189Z,21.67
2022-11-07T05:15:06.963Z,20.73
2022-11-07T05:17:33.666Z,20.88
2022-11-07T05:20:00.713Z,21.10
2022-11-07T05:22:45.639Z,20.33
2022-11-07T05:25:12.719Z,19.35
2022-11-07T05:27:39.419Z,20.10
2022-11-07T05:30:06.974Z,19.27
2022-11-07T05:32:38.190Z,19.63
2022-11-07T05:35:05.973Z,18.42
2022-11-07T05:37:32.725Z,19.08
2022-11-07T05:39:59.746Z,19.63
2022-11-07T05:42:26.534Z,18.52
2022-11-07T05:44:53.664Z,19.45
2022-11-07T05:47:20.410Z,19.60
2022-11-07T05:49:47.386Z,18.40
2022-11-07T05:52:14.158Z,19.05
2022-11-07T05:54:41.262Z,19.85
2022-11-07T05:57:07.949Z,18.05
2022-11-07T05:59:34.923Z,18.02
2022-11-07T06:02:01.750Z,17.98
2022-11-07T06:04:28.820Z,18.50
2022-11-07T06:06:55.601Z,17.42
2022-11-07T06:09:22.605Z,16.23
2022-11-07T06:11:49.334Z,15.88
2022-11-07T06:14:16.813Z,15.30
2022-11-07T06:16:43.536Z,15.55
2022-11-07T06:19:10.554Z,15.50
2022-11-07T06:21:37.232Z,14.40
2022-11-07T06:24:04.641Z,13.95
2022-11-07T06:26:31.541Z,13.60
2022-11-07T06:28:58.526Z,11.50
2022-11-07T06:31:25.235Z,11.93
2022-11-07T06:33:52.279Z,12.55
2022-11-07T06:36:19.005Z,11.00
2022-11-07T06:38:46.079Z,10.85
2022-11-07T06:41:13.850Z,10.73
2022-11-07T06:43:40.907Z,11.00
2022-11-07T06:46:09.763Z,9.98
2022-11-07T06:48:36.836Z,10.07
2022-11-07T06:51:04.203Z,9.95
2022-11-07T06:53:31.397Z,10.80
2022-11-07T06:55:59.969Z,10.30
2022-11-07T06:58:27.146Z,11.27
2022-11-07T07:00:53.983Z,10.05
2022-11-07T07:03:21.057Z,9.90
2022-11-07T07:05:47.765Z,10.18
2022-11-07T07:08:14.907Z,10.52
2022-11-07T07:10:43.434Z,10.07
2022-11-07T07:13:10.728Z,9.80
2022-11-07T07:15:50.511Z,9.15
2022-11-07T07:18:19.458Z,8.52
2022-11-07T07:20:47.239Z,9.35
2022-11-07T07:23:14.283Z,8.52
2022-11-07T07:25:40.976Z,7.82
2022-11-07T07:28:07.975Z,8.73
2022-11-07T07:30:34.652Z,8.43
2022-11-07T07:33:01.744Z,8.40
2022-11-07T07:35:28.547Z,8.40
2022-11-07T07:37:55.558Z,8.98
2022-11-07T07:40:22.324Z,7.93
2022-11-07T07:42:49.388Z,7.55
2022-11-07T07:45:16.274Z,6.85
2022-11-07T07:47:43.296Z,7.25
2022-11-07T07:50:11.073Z,6.03
2022-11-07T07:52:38.316Z,6.93
2022-11-07T07:55:07.930Z,8.55
2022-11-07T07:57:44.533Z,6.93
2022-11-07T08:00:12.144Z,6.72
2022-11-07T08:02:39.877Z,6.63
2022-11-07T08:05:07.017Z,7.28
2022-11-07T08:07:34.130Z,8.85
2022-11-07T08:10:09.951Z,7.20
2022-11-07T08:12:48.336Z,7.10
2022-11-07T08:15:15.524Z,7.10
2022-11-07T08:17:42.642Z,6.80
2022-11-07T08:20:10.396Z,6.70
2022-11-07T08:22:38.063Z,7.25
2022-11-07T08:25:05.775Z,7.15
2022-11-07T08:27:32.907Z,7.38
2022-11-07T08:29:59.707Z,7.25
2022-11-07T08:32:27.495Z,7.28
2022-11-07T08:34:54.202Z,7.28
2022-11-07T08:37:21.359Z,8.07
2022-11-07T08:39:48.143Z,6.90
2022-11-07T08:42:15.550Z,7.97
2022-11-07T08:44:42.234Z,7.60
2022-11-07T08:47:09.271Z,7.00
2022-11-07T08:49:36.034Z,7.22
2022-11-07T08:52:03.183Z,7.28
2022-11-07T08:54:30.048Z,7.03
2022-11-07T08:56:57.074Z,8.20
2022-11-07T08:59:23.798Z,7.47
2022-11-07T09:02:26.646Z,6.93
2022-11-07T09:04:37.599Z,7.18
2022-11-07T09:07:04.752Z,7.10
2022-11-07T09:09:31.471Z,6.05
2022-11-07T09:11:58.595Z,7.43
2022-11-07T09:14:25.452Z,8.15
2022-11-07T09:16:52.481Z,8.38
2022-11-07T09:19:19.206Z,8.90
2022-11-07T09:21:46.804Z,8.98
2022-11-07T09:24:13.525Z,8.18
2022-11-07T09:26:40.594Z,7.57
2022-11-07T09:29:07.299Z,7.18
2022-11-07T09:31:34.350Z,7.30
2022-11-07T09:34:01.174Z,7.00
2022-11-07T09:36:28.419Z,7.53
2022-11-07T09:38:56.916Z,8.57
2022-11-07T09:41:30.059Z,8.35
2022-11-07T09:43:56.719Z,8.52
2022-11-07T09:46:46.138Z,8.95
2022-11-07T09:49:15.514Z,8.50
2022-11-07T09:51:50.621Z,7.90
2022-11-07T09:54:20.538Z,8.02
2022-11-07T09:56:47.290Z,9.45
2022-11-07T09:59:22.005Z,8.30
2022-11-07T10:01:48.858Z,9.33
2022-11-07T10:04:24.785Z,8.85
2022-11-07T10:06:56.931Z,7.45
2022-11-07T10:09:42.317Z,7.82
2022-11-07T10:12:33.753Z,7.95
2022-11-07T10:15:09.701Z,8.10
2022-11-07T10:17:54.155Z,7.70
2022-11-07T10:20:33.304Z,7.32
2022-11-07T10:23:29.930Z,6.78
2022-11-07T10:26:05.024Z,7.07
2022-11-07T10:28:31.755Z,6.78
2022-11-07T10:30:59.186Z,7.55
2022-11-07T10:34:11.580Z,6.35
2022-11-07T10:36:38.571Z,7.30
2022-11-07T10:39:16.133Z,7.07
2022-11-07T10:41:59.848Z,8.55
2022-11-07T10:44:26.884Z,8.07
2022-11-07T10:46:54.875Z,7.72
2022-11-07T10:49:24.515Z,7.63
2022-11-07T10:51:51.828Z,8.70
2022-11-07T10:54:25.706Z,8.35
2022-11-07T10:57:02.859Z,7.53
2022-11-07T10:59:35.884Z,8.23
2022-11-07T11:02:09.117Z,8.32
2022-11-07T11:04:36.955Z,7.78
2022-11-07T11:07:05.677Z,7.55
2022-11-07T11:09:33.795Z,7.63
2022-11-07T11:12:12.425Z,7.78
2022-11-07T11:14:39.623Z,7.18
2022-11-07T11:17:06.714Z,6.40
2022-11-07T11:19:41.187Z,7.57
2022-11-07T11:22:15.048Z,6.38
2022-11-07T11:24:41.941Z,6.78
2022-11-07T11:27:22.468Z,7.07
2022-11-07T11:29:58.575Z,6.90
2022-11-07T11:33:03.549Z,6.85
2022-11-07T11:35:48.226Z,5.93
2022-11-07T11:38:31.488Z,6.18
2022-11-07T11:41:10.694Z,6.65
2022-11-07T11:43:57.642Z,6.25
2022-11-07T11:46:47.335Z,6.30
2022-11-07T11:49:51.697Z,7.18
2022-11-07T11:52:22.341Z,6.18
2022-11-07T11:54:51.124Z,6.50
2022-11-07T11:57:23.544Z,6.07
2022-11-07T11:59:57.097Z,6.15
2022-11-07T12:03:01.512Z,6.40
2022-11-07T12:06:06.135Z,7.03
2022-11-07T12:08:47.876Z,6.95
2022-11-07T12:11:17.599Z,6.05
2022-11-07T12:14:13.351Z,6.78
2022-11-07T12:17:01.944Z,6.97
2022-11-07T12:19:33.483Z,6.55
2022-11-07T12:22:15.911Z,7.13
2022-11-07T12:25:22.363Z,7.40
2022-11-07T12:28:07.496Z,6.53
2022-11-07T12:30:55.227Z,6.50
2022-11-07T12:33:34.273Z,6.18
2022-11-07T12:36:16.561Z,5.75
2022-11-07T12:38:49.611Z,6.63
2022-11-07T12:41:34.858Z,6.97
2022-11-07T12:44:23.703Z,6.40
2022-11-07T12:47:01.031Z,7.35
2022-11-07T12:49:40.136Z,8.07
2022-11-07T12:52:17.233Z,7.18
2022-11-07T12:54:55.450Z,7.63
2022-11-07T12:57:24.735Z,7.35
2022-11-07T13:00:01.971Z,7.70
2022-11-07T13:03:04.310Z,7.72
2022-11-07T13:05:39.844Z,7.53
2022-11-07T13:10:53.677Z,7.03
2022-11-07T13:13:25.574Z,7.55
2022-11-07T13:16:14.454Z,7.40
2022-11-07T13:21:11.287Z,6.95
2022-11-07T13:23:38.574Z,6.20
2022-11-07T13:26:25.946Z,6.50
2022-11-07T13:28:57.611Z,6.30
2022-11-07T13:31:32.998Z,5.20
2022-11-07T13:34:18.258Z,5.88
2022-11-07T13:36:46.047Z,5.20
2022-11-07T13:39:13.437Z,5.47
2022-11-07T13:41:40.938Z,5.45
2022-11-07T13:44:14.279Z,4.63
2022-11-07T13:46:52.514Z,5.05
2022-11-07T13:49:30.454Z,5.40
2022-11-07T13:52:01.638Z,4.97
2022-11-07T13:54:45.885Z,4.75
2022-11-07T13:57:19.582Z,4.40
2022-11-07T13:59:46.310Z,5.18
2022-11-07T14:02:27.013Z,5.30
2022-11-07T14:05:15.196Z,5.15
2022-11-07T14:07:47.266Z,5.05
2022-11-07T14:10:19.693Z,5.00
2022-11-07T14:12:46.710Z,5.53
2022-11-07T14:15:16.863Z,5.78
2022-11-07T14:17:43.849Z,5.40
2022-11-07T14:20:16.850Z,5.70
2022-11-07T14:22:50.621Z,6.20
2022-11-07T14:25:32.674Z,5.07
2022-11-07T14:28:00.258Z,5.25
2022-11-07T14:30:28.592Z,5.13
2022-11-07T14:32:57.862Z,5.25
2022-11-07T14:35:33.426Z,5.68
2022-11-07T14:38:16.782Z,4.88
2022-11-07T14:40:43.719Z,5.78
2022-11-07T14:43:13.413Z,5.20
2022-11-07T14:46:10.727Z,7.15
2022-11-07T14:48:27.909Z,7.07
2022-11-07T14:50:55.098Z,6.28
2022-11-07T14:53:24.658Z,6.78
2022-11-07T14:55:56.790Z,7.22
2022-11-07T14:58:24.756Z,7.35
2022-11-07T15:00:59.826Z,7.53
2022-11-07T15:05:57.758Z,8.77
2022-11-07T15:08:31.695Z,8.35
2022-11-07T15:11:16.468Z,9.25
2022-11-07T15:13:43.495Z,9.45
2022-11-07T15:16:17.680Z,8.90
2022-11-07T15:18:49.644Z,9.60
2022-11-07T15:21:33.978Z,9.50
2022-11-07T15:24:13.662Z,11.30
2022-11-07T15:26:42.542Z,11.57
2022-11-07T15:29:14.850Z,12.30
2022-11-07T15:31:47.362Z,12.43
2022-11-07T15:34:17.924Z,12.20
2022-11-07T15:36:48.731Z,12.57
2022-11-07T15:39:16.015Z,13.07
2022-11-07T15:41:42.736Z,13.80
2022-11-07T15:44:09.754Z,15.88
2022-11-07T15:46:38.417Z,16.73
2022-11-07T15:49:06.270Z,15.27
2022-11-07T15:51:33.135Z,15.90
2022-11-07T15:54:00.129Z,16.13
2022-11-07T15:56:26.870Z,17.33
2022-11-07T15:58:53.962Z,17.85
2022-11-07T16:01:20.728Z,18.30
2022-11-07T16:03:48.016Z,19.98
2022-11-07T16:06:28.139Z,23.60
2022-11-07T16:08:55.176Z,24.38
2022-11-07T16:11:22.064Z,29.95
2022-11-07T16:13:50.866Z,31.52
2022-11-07T16:16:20.239Z,31.02
2022-11-07T16:18:49.823Z,34.60
2022-11-07T16:21:17.575Z,33.95
2022-11-07T16:23:47.852Z,33.65
2022-11-07T16:26:15.498Z,32.83
2022-11-07T16:28:42.892Z,34.42
2022-11-07T16:31:09.625Z,33.03
2022-11-07T16:33:36.606Z,32.33
2022-11-07T16:36:14.883Z,34.40
2022-11-07T16:38:41.858Z,32.15
2022-11-07T16:41:08.665Z,34.70
2022-11-07T16:43:37.994Z,34.78
2022-11-07T16:46:04.810Z,33.65
2022-11-07T16:48:32.211Z,34.13
2022-11-07T16:50:58.978Z,33.35
2022-11-07T16:53:26.111Z,34.53
2022-11-07T16:55:56.190Z,31.70
2022-11-07T16:58:27.175Z,31.65
2022-11-07T17:00:54.789Z,31.58
2022-11-07T17:03:22.174Z,30.17
2022-11-07T17:05:48.968Z,30.63
2022-11-07T17:08:21.160Z,30.02
2022-11-07T17:10:47.945Z,29.10
2022-11-07T17:13:14.924Z,27.92
2022-11-07T17:15:41.789Z,29.42
2022-11-07T17:18:18.476Z,28.95
2022-11-07T17:20:52.815Z,25.98
2022-11-07T17:23:24.014Z,26.63
2022-11-07T17:25:54.150Z,26.83
2022-11-07T17:28:21.645Z,28.70
2022-11-07T17:30:48.388Z,28.65
2022-11-07T17:33:15.466Z,28.55
2022-11-07T17:35:42.256Z,29.08
2022-11-07T17:38:14.563Z,29.08
2022-11-07T17:40:41.480Z,28.60
2022-11-07T17:43:08.529Z,27.98
2022-11-07T17:45:35.243Z,28.75
2022-11-07T17:48:02.269Z,29.05
2022-11-07T17:50:29.087Z,28.33
2022-11-07T17:52:56.135Z,28.05
2022-11-07T17:55:24.641Z,28.05
2022-11-07T17:57:51.767Z,28.48
2022-11-07T18:00:20.463Z,28.35
2022-11-07T18:02:48.621Z,29.60
2022-11-07T18:05:16.447Z,29.02
2022-11-07T18:07:44.149Z,27.45
2022-11-07T18:10:12.195Z,27.92
2022-11-07T18:12:39.264Z,26.88
2022-11-07T18:15:06.401Z,25.98
2022-11-07T18:17:35.561Z,23.17
2022-11-07T18:20:04.051Z,22.77
2022-11-07T18:22:31.420Z,22.25
2022-11-07T18:24:58.161Z,20.63
2022-11-07T18:27:25.345Z,20.13
2022-11-07T18:29:52.076Z,20.55
2022-11-07T18:32:19.061Z,19.45
2022-11-07T18:34:45.810Z,18.48
2022-11-07T18:37:12.897Z,19.95
2022-11-07T18:39:39.661Z,18.23
2022-11-07T18:42:06.686Z,18.17
2022-11-07T18:44:33.408Z,17.83
2022-11-07T18:47:00.425Z,16.95
2022-11-07T18:49:27.185Z,17.98
2022-11-07T18:51:54.197Z,17.55
2022-11-07T18:54:22.169Z,18.05
2022-11-07T18:56:49.289Z,17.88
2022-11-07T18:59:16.068Z,18.40
2022-11-07T19:01:43.198Z,18.13
2022-11-07T19:04:11.456Z,16.58
2022-11-07T19:06:55.667Z,17.58
2022-11-07T19:09:32.372Z,18.67
2022-11-07T19:11:59.996Z,18.55
2022-11-07T19:14:27.189Z,19.02
2022-11-07T19:16:54.390Z,19.45
2022-11-07T19:19:21.148Z,18.92
2022-11-07T19:21:48.200Z,17.58
2022-11-07T19:24:15.308Z,19.88
2022-11-07T19:26:42.396Z,19.05
2022-11-07T19:29:12.197Z,18.75
2022-11-07T19:31:39.244Z,19.92
2022-11-07T19:34:39.516Z,19.05
2022-11-07T19:37:17.540Z,18.15
2022-11-07T19:39:44.521Z,19.58
2022-11-07T19:42:11.556Z,19.60
2022-11-07T19:44:40.766Z,19.55
2022-11-07T19:47:10.075Z,19.50
2022-11-07T19:49:36.784Z,19.27
2022-11-07T19:52:03.971Z,19.00
2022-11-07T19:54:30.713Z,18.63
2022-11-07T19:56:57.936Z,21.17
2022-11-07T19:59:24.860Z,20.05
2022-11-07T20:02:17.796Z,20.00
2022-11-07T20:04:38.621Z,20.30
2022-11-07T20:07:05.751Z,20.42
2022-11-07T20:09:34.249Z,21.23
2022-11-07T20:12:01.306Z,18.85
2022-11-07T20:14:27.995Z,18.77
2022-11-07T20:16:54.995Z,19.90
2022-11-07T20:19:21.720Z,19.30
2022-11-07T20:21:48.808Z,19.92
2022-11-07T20:24:15.560Z,18.45
2022-11-07T20:26:43.967Z,17.80
2022-11-07T20:29:10.719Z,18.70
2022-11-07T20:31:37.858Z,17.63
2022-11-07T20:34:05.664Z,19.08
2022-11-07T20:36:32.756Z,18.23
2022-11-07T20:39:00.033Z,17.95
2022-11-07T20:41:27.305Z,18.75
2022-11-07T20:43:58.035Z,17.33
2022-11-07T20:46:25.059Z,16.92
2022-11-07T20:48:51.925Z,17.77
2022-11-07T20:51:20.715Z,16.60
2022-11-07T20:53:50.428Z,17.05
2022-11-07T20:56:19.035Z,16.40
2022-11-07T20:58:46.547Z,16.90
2022-11-07T21:01:15.627Z,16.77
2022-11-07T21:03:44.119Z,16.38
2022-11-07T21:06:13.996Z,16.65
2022-11-07T21:08:42.160Z,16.67
2022-11-07T21:11:09.419Z,15.43
2022-11-07T21:13:36.296Z,19.52
2022-11-07T21:16:03.625Z,18.25
2022-11-07T21:18:30.562Z,19.55
2022-11-07T21:21:21.163Z,17.48
2022-11-07T21:23:48.441Z,17.67
2022-11-07T21:26:21.968Z,18.95
2022-11-07T21:28:48.763Z,18.55
2022-11-07T21:31:18.664Z,21.05
2022-11-07T21:33:46.201Z,19.10
2022-11-07T21:36:15.733Z,21.13
2022-11-07T21:38:42.426Z,19.25
2022-11-07T21:41:09.827Z,19.45
2022-11-07T21:43:36.852Z,20.42
2022-11-07T21:46:29.383Z,20.38
2022-11-07T21:48:56.279Z,20.38
2022-11-07T21:51:30.522Z,19.25
2022-11-07T21:53:57.742Z,18.42
2022-11-07T21:56:32.308Z,19.50
2022-11-07T21:59:00.409Z,18.67
2022-11-07T22:01:27.681Z,17.45
2022-11-07T22:04:11.232Z,17.23
2022-11-07T22:06:44.006Z,18.23
2022-11-07T22:09:15.189Z,16.30
2022-11-07T22:11:42.403Z,18.27
2022-11-07T22:14:11.619Z,15.98
2022-11-07T22:16:38.910Z,16.73
2022-11-07T22:19:11.173Z,16.10
2022-11-07T22:21:39.639Z,14.90
2022-11-07T22:24:06.695Z,15.32
2022-11-07T22:26:33.774Z,15.32
2022-11-07T22:29:00.472Z,15.18
2022-11-07T22:31:32.505Z,15.00
2022-11-07T22:34:00.097Z,14.90
2022-11-07T22:36:27.360Z,15.35
2022-11-07T22:38:55.363Z,14.75
2022-11-07T22:41:23.334Z,14.52
2022-11-07T22:43:50.243Z,16.33
2022-11-07T22:46:19.334Z,15.13
2022-11-07T22:48:46.421Z,15.85
2022-11-07T22:51:24.493Z,16.40
2022-11-07T22:54:02.039Z,17.48
2022-11-07T22:56:29.575Z,15.63
2022-11-07T22:58:56.443Z,16.15
2022-11-07T23:01:33.119Z,15.45
2022-11-07T23:04:00.009Z,16.10
2022-11-07T23:06:27.704Z,15.10
2022-11-07T23:08:56.639Z,15.00
2022-11-07T23:11:48.349Z,14.00
2022-11-07T23:14:17.624Z,14.32
2022-11-07T23:16:47.867Z,14.48
2022-11-07T23:19:15.374Z,14.35
2022-11-07T23:21:42.795Z,14.63
2022-11-07T23:24:09.726Z,14.88
2022-11-07T23:26:36.799Z,14.43
2022-11-07T23:29:14.384Z,14.55
2022-11-07T23:31:43.223Z,15.57
2022-11-07T23:34:10.287Z,14.35
2022-11-07T23:36:37.491Z,14.38
2022-11-07T23:39:05.601Z,13.68
2022-11-07T23:41:32.838Z,14.18
2022-11-07T23:43:59.674Z,13.75
2022-11-07T23:46:45.009Z,13.48
2022-11-07T23:49:30.355Z,13.70
2022-11-07T23:51:57.375Z,12.82
2022-11-07T23:54:42.625Z,13.18
2022-11-07T23:57:09.670Z,11.88
2022-11-07T23:59:54.923Z,13.80
